sensor_id;sensor_type;location;lat;lon;timestamp;P1;durP1;ratioP1;P2;durP2;ratioP2
17451;SDS011;8843;48.838;9.324;2023-05-29T00:01:52;7.13;;;4.67;;
17451;SDS011;8843;48.838;9.324;2023-05-29T00:04:21;8.17;;;4.80;;
17451;SDS011;8843;48.838;9.324;2023-05-29T00:06:47;6.70;;;4.13;;
17451;SDS011;8843;48.838;9.324;2023-05-29T00:09:15;7.27;;;4.77;;
17451;SDS011;8843;48.838;9.324;2023-05-29T00:11:42;5.00;;;4.30;;
17451;SDS011;8843;48.838;9.324;2023-05-29T00:14:09;6.83;;;4.67;;
17451;SDS011;8843;48.838;9.324;2023-05-29T00:16:38;7.93;;;4.13;;
17451;SDS011;8843;48.838;9.324;2023-05-29T00:19:05;6.97;;;4.20;;
17451;SDS011;8843;48.838;9.324;2023-05-29T00:21:35;5.80;;;4.40;;
17451;SDS011;8843;48.838;9.324;2023-05-29T00:24:02;6.10;;;4.30;;
17451;SDS011;8843;48.838;9.324;2023-05-29T00:26:29;5.97;;;3.90;;
17451;SDS011;8843;48.838;9.324;2023-05-29T00:28:56;7.10;;;4.77;;
17451;SDS011;8843;48.838;9.324;2023-05-29T00:31:22;6.67;;;4.87;;
17451;SDS011;8843;48.838;9.324;2023-05-29T00:33:50;5.97;;;4.17;;
17451;SDS011;8843;48.838;9.324;2023-05-29T00:36:16;8.23;;;4.60;;
17451;SDS011;8843;48.838;9.324;2023-05-29T00:38:45;6.73;;;3.90;;
17451;SDS011;8843;48.838;9.324;2023-05-29T00:41:13;4.40;;;3.93;;
17451;SDS011;8843;48.838;9.324;2023-05-29T00:43:41;5.90;;;4.40;;
17451;SDS011;8843;48.838;9.324;2023-05-29T00:46:08;5.90;;;4.23;;
17451;SDS011;8843;48.838;9.324;2023-05-29T00:48:37;5.43;;;4.13;;
17451;SDS011;8843;48.838;9.324;2023-05-29T00:51:06;6.83;;;4.10;;
17451;SDS011;8843;48.838;9.324;2023-05-29T00:53:34;4.90;;;3.97;;
17451;SDS011;8843;48.838;9.324;2023-05-29T00:56:03;8.00;;;4.43;;
17451;SDS011;8843;48.838;9.324;2023-05-29T00:58:30;5.80;;;3.93;;
17451;SDS011;8843;48.838;9.324;2023-05-29T01:00:57;6.33;;;4.10;;
17451;SDS011;8843;48.838;9.324;2023-05-29T01:03:25;5.27;;;4.37;;
17451;SDS011;8843;48.838;9.324;2023-05-29T01:05:53;5.33;;;3.83;;
17451;SDS011;8843;48.838;9.324;2023-05-29T01:08:20;6.10;;;3.93;;
17451;SDS011;8843;48.838;9.324;2023-05-29T01:10:47;5.93;;;3.80;;
17451;SDS011;8843;48.838;9.324;2023-05-29T01:13:20;5.97;;;3.70;;
17451;SDS011;8843;48.838;9.324;2023-05-29T01:15:54;4.37;;;3.70;;
17451;SDS011;8843;48.838;9.324;2023-05-29T01:18:29;6.03;;;3.87;;
17451;SDS011;8843;48.838;9.324;2023-05-29T01:21:06;4.77;;;3.47;;
17451;SDS011;8843;48.838;9.324;2023-05-29T01:23:53;6.20;;;3.97;;
17451;SDS011;8843;48.838;9.324;2023-05-29T01:29:17;6.40;;;3.73;;
17451;SDS011;8843;48.838;9.324;2023-05-29T01:31:48;4.50;;;3.43;;
17451;SDS011;8843;48.838;9.324;2023-05-29T01:34:17;4.80;;;3.57;;
17451;SDS011;8843;48.838;9.324;2023-05-29T01:36:45;4.70;;;3.50;;
17451;SDS011;8843;48.838;9.324;2023-05-29T01:39:12;5.37;;;3.40;;
17451;SDS011;8843;48.838;9.324;2023-05-29T01:41:40;4.50;;;3.53;;
17451;SDS011;8843;48.838;9.324;2023-05-29T01:44:09;5.30;;;4.00;;
17451;SDS011;8843;48.838;9.324;2023-05-29T01:46:38;5.57;;;3.57;;
17451;SDS011;8843;48.838;9.324;2023-05-29T01:49:05;6.50;;;3.50;;
17451;SDS011;8843;48.838;9.324;2023-05-29T01:51:32;6.33;;;4.07;;
17451;SDS011;8843;48.838;9.324;2023-05-29T01:54:00;6.77;;;4.07;;
17451;SDS011;8843;48.838;9.324;2023-05-29T01:56:27;3.90;;;3.50;;
17451;SDS011;8843;48.838;9.324;2023-05-29T01:58:56;6.03;;;3.17;;
17451;SDS011;8843;48.838;9.324;2023-05-29T02:01:24;6.53;;;3.63;;
17451;SDS011;8843;48.838;9.324;2023-05-29T02:03:52;3.80;;;3.20;;
17451;SDS011;8843;48.838;9.324;2023-05-29T02:06:19;6.83;;;3.83;;
17451;SDS011;8843;48.838;9.324;2023-05-29T02:08:46;6.43;;;3.80;;
17451;SDS011;8843;48.838;9.324;2023-05-29T02:11:13;5.03;;;3.67;;
17451;SDS011;8843;48.838;9.324;2023-05-29T02:13:41;4.30;;;3.50;;
17451;SDS011;8843;48.838;9.324;2023-05-29T02:16:08;4.57;;;3.53;;
17451;SDS011;8843;48.838;9.324;2023-05-29T02:18:36;4.53;;;3.63;;
17451;SDS011;8843;48.838;9.324;2023-05-29T02:21:03;5.73;;;3.70;;
17451;SDS011;8843;48.838;9.324;2023-05-29T02:23:30;6.50;;;3.47;;
17451;SDS011;8843;48.838;9.324;2023-05-29T02:25:56;4.07;;;3.60;;
17451;SDS011;8843;48.838;9.324;2023-05-29T02:28:23;6.07;;;3.87;;
17451;SDS011;8843;48.838;9.324;2023-05-29T02:30:50;7.30;;;3.83;;
17451;SDS011;8843;48.838;9.324;2023-05-29T02:33:17;4.60;;;3.57;;
17451;SDS011;8843;48.838;9.324;2023-05-29T02:35:46;5.90;;;3.90;;
17451;SDS011;8843;48.838;9.324;2023-05-29T02:38:13;4.20;;;3.63;;
17451;SDS011;8843;48.838;9.324;2023-05-29T02:40:40;6.03;;;4.30;;
17451;SDS011;8843;48.838;9.324;2023-05-29T02:43:07;5.87;;;3.83;;
17451;SDS011;8843;48.838;9.324;2023-05-29T02:45:35;5.70;;;3.97;;
17451;SDS011;8843;48.838;9.324;2023-05-29T02:48:02;5.53;;;3.97;;
17451;SDS011;8843;48.838;9.324;2023-05-29T02:50:29;5.07;;;3.80;;
17451;SDS011;8843;48.838;9.324;2023-05-29T02:52:57;4.83;;;3.13;;
17451;SDS011;8843;48.838;9.324;2023-05-29T02:55:24;5.80;;;3.90;;
17451;SDS011;8843;48.838;9.324;2023-05-29T02:57:51;5.30;;;3.17;;
17451;SDS011;8843;48.838;9.324;2023-05-29T03:00:20;6.30;;;3.57;;
17451;SDS011;8843;48.838;9.324;2023-05-29T03:02:47;5.40;;;4.20;;
17451;SDS011;8843;48.838;9.324;2023-05-29T03:05:14;5.37;;;3.27;;
17451;SDS011;8843;48.838;9.324;2023-05-29T03:07:41;5.37;;;3.43;;
17451;SDS011;8843;48.838;9.324;2023-05-29T03:10:10;5.60;;;3.13;;
17451;SDS011;8843;48.838;9.324;2023-05-29T03:12:37;6.00;;;3.43;;
17451;SDS011;8843;48.838;9.324;2023-05-29T03:15:05;5.43;;;3.80;;
17451;SDS011;8843;48.838;9.324;2023-05-29T03:17:32;5.10;;;3.07;;
17451;SDS011;8843;48.838;9.324;2023-05-29T03:20:01;5.77;;;3.47;;
17451;SDS011;8843;48.838;9.324;2023-05-29T03:22:31;5.07;;;3.07;;
17451;SDS011;8843;48.838;9.324;2023-05-29T03:24:57;5.77;;;3.40;;
17451;SDS011;8843;48.838;9.324;2023-05-29T03:27:26;6.80;;;4.23;;
17451;SDS011;8843;48.838;9.324;2023-05-29T03:29:54;7.30;;;3.53;;
17451;SDS011;8843;48.838;9.324;2023-05-29T03:32:21;4.17;;;3.30;;
17451;SDS011;8843;48.838;9.324;2023-05-29T03:34:48;4.47;;;3.70;;
17451;SDS011;8843;48.838;9.324;2023-05-29T03:37:14;5.73;;;3.63;;
17451;SDS011;8843;48.838;9.324;2023-05-29T03:39:41;5.10;;;3.57;;
17451;SDS011;8843;48.838;9.324;2023-05-29T03:42:08;5.43;;;3.40;;
17451;SDS011;8843;48.838;9.324;2023-05-29T03:44:36;4.50;;;3.50;;
17451;SDS011;8843;48.838;9.324;2023-05-29T03:47:03;5.20;;;3.50;;
17451;SDS011;8843;48.838;9.324;2023-05-29T03:49:31;6.50;;;4.30;;
17451;SDS011;8843;48.838;9.324;2023-05-29T03:51:57;5.60;;;3.43;;
17451;SDS011;8843;48.838;9.324;2023-05-29T03:54:24;5.60;;;3.40;;
17451;SDS011;8843;48.838;9.324;2023-05-29T03:56:51;5.07;;;4.30;;
17451;SDS011;8843;48.838;9.324;2023-05-29T03:59:18;4.30;;;3.27;;
17451;SDS011;8843;48.838;9.324;2023-05-29T04:01:46;6.37;;;3.50;;
17451;SDS011;8843;48.838;9.324;2023-05-29T04:04:13;5.90;;;4.13;;
17451;SDS011;8843;48.838;9.324;2023-05-29T04:06:40;5.47;;;3.30;;
17451;SDS011;8843;48.838;9.324;2023-05-29T04:09:07;5.27;;;3.90;;
17451;SDS011;8843;48.838;9.324;2023-05-29T04:11:34;6.20;;;4.03;;
17451;SDS011;8843;48.838;9.324;2023-05-29T04:14:01;4.03;;;3.17;;
17451;SDS011;8843;48.838;9.324;2023-05-29T04:16:28;4.77;;;3.60;;
17451;SDS011;8843;48.838;9.324;2023-05-29T04:18:56;4.40;;;3.70;;
17451;SDS011;8843;48.838;9.324;2023-05-29T04:21:23;8.40;;;4.00;;
17451;SDS011;8843;48.838;9.324;2023-05-29T04:23:50;5.53;;;3.60;;
17451;SDS011;8843;48.838;9.324;2023-05-29T04:26:17;5.70;;;3.53;;
17451;SDS011;8843;48.838;9.324;2023-05-29T04:28:49;4.97;;;3.60;;
17451;SDS011;8843;48.838;9.324;2023-05-29T04:31:22;4.83;;;3.60;;
17451;SDS011;8843;48.838;9.324;2023-05-29T04:33:50;5.03;;;3.90;;
17451;SDS011;8843;48.838;9.324;2023-05-29T04:36:20;5.40;;;3.50;;
17451;SDS011;8843;48.838;9.324;2023-05-29T04:38:50;4.70;;;3.70;;
17451;SDS011;8843;48.838;9.324;2023-05-29T04:41:18;6.60;;;4.10;;
17451;SDS011;8843;48.838;9.324;2023-05-29T04:43:48;5.13;;;3.50;;
17451;SDS011;8843;48.838;9.324;2023-05-29T04:46:16;6.43;;;3.67;;
17451;SDS011;8843;48.838;9.324;2023-05-29T04:48:42;5.20;;;4.10;;
17451;SDS011;8843;48.838;9.324;2023-05-29T04:51:09;5.13;;;3.63;;
17451;SDS011;8843;48.838;9.324;2023-05-29T04:53:38;5.77;;;4.00;;
17451;SDS011;8843;48.838;9.324;2023-05-29T04:56:06;4.90;;;4.10;;
17451;SDS011;8843;48.838;9.324;2023-05-29T04:58:33;7.10;;;4.40;;
17451;SDS011;8843;48.838;9.324;2023-05-29T05:01:00;6.77;;;4.53;;
17451;SDS011;8843;48.838;9.324;2023-05-29T05:03:28;7.63;;;3.87;;
17451;SDS011;8843;48.838;9.324;2023-05-29T05:05:55;5.40;;;3.90;;
17451;SDS011;8843;48.838;9.324;2023-05-29T05:08:23;5.20;;;4.07;;
17451;SDS011;8843;48.838;9.324;2023-05-29T05:10:51;8.33;;;4.80;;
17451;SDS011;8843;48.838;9.324;2023-05-29T05:13:18;7.33;;;4.97;;
17451;SDS011;8843;48.838;9.324;2023-05-29T05:15:45;5.33;;;4.70;;
17451;SDS011;8843;48.838;9.324;2023-05-29T05:18:12;5.80;;;4.40;;
17451;SDS011;8843;48.838;9.324;2023-05-29T05:20:38;6.90;;;4.37;;
17451;SDS011;8843;48.838;9.324;2023-05-29T05:23:05;8.23;;;4.70;;
17451;SDS011;8843;48.838;9.324;2023-05-29T05:25:32;6.03;;;4.33;;
17451;SDS011;8843;48.838;9.324;2023-05-29T05:28:01;5.40;;;4.87;;
17451;SDS011;8843;48.838;9.324;2023-05-29T05:30:29;6.53;;;4.33;;
17451;SDS011;8843;48.838;9.324;2023-05-29T05:32:56;5.80;;;3.70;;
17451;SDS011;8843;48.838;9.324;2023-05-29T05:35:23;6.90;;;5.00;;
17451;SDS011;8843;48.838;9.324;2023-05-29T05:37:50;5.47;;;4.47;;
17451;SDS011;8843;48.838;9.324;2023-05-29T05:40:18;6.27;;;4.53;;
17451;SDS011;8843;48.838;9.324;2023-05-29T05:42:45;5.67;;;4.03;;
17451;SDS011;8843;48.838;9.324;2023-05-29T05:45:13;5.57;;;4.30;;
17451;SDS011;8843;48.838;9.324;2023-05-29T05:47:40;7.43;;;4.77;;
17451;SDS011;8843;48.838;9.324;2023-05-29T05:50:07;7.87;;;4.57;;
17451;SDS011;8843;48.838;9.324;2023-05-29T05:52:34;6.93;;;4.50;;
17451;SDS011;8843;48.838;9.324;2023-05-29T05:55:01;6.20;;;4.10;;
17451;SDS011;8843;48.838;9.324;2023-05-29T05:57:28;5.67;;;4.20;;
17451;SDS011;8843;48.838;9.324;2023-05-29T05:59:57;5.93;;;4.50;;
17451;SDS011;8843;48.838;9.324;2023-05-29T06:02:26;7.10;;;5.20;;
17451;SDS011;8843;48.838;9.324;2023-05-29T06:04:53;8.80;;;5.23;;
17451;SDS011;8843;48.838;9.324;2023-05-29T06:07:20;7.07;;;4.43;;
17451;SDS011;8843;48.838;9.324;2023-05-29T06:09:47;6.17;;;4.30;;
17451;SDS011;8843;48.838;9.324;2023-05-29T06:12:13;6.87;;;4.10;;
17451;SDS011;8843;48.838;9.324;2023-05-29T06:14:40;7.50;;;4.77;;
17451;SDS011;8843;48.838;9.324;2023-05-29T06:17:07;6.13;;;4.60;;
17451;SDS011;8843;48.838;9.324;2023-05-29T06:19:36;7.33;;;4.47;;
17451;SDS011;8843;48.838;9.324;2023-05-29T06:22:03;6.63;;;4.83;;
17451;SDS011;8843;48.838;9.324;2023-05-29T06:24:30;6.80;;;4.90;;
17451;SDS011;8843;48.838;9.324;2023-05-29T06:26:57;8.03;;;5.03;;
17451;SDS011;8843;48.838;9.324;2023-05-29T06:29:23;5.50;;;4.40;;
17451;SDS011;8843;48.838;9.324;2023-05-29T06:31:51;8.70;;;3.87;;
17451;SDS011;8843;48.838;9.324;2023-05-29T06:34:17;5.50;;;4.03;;
17451;SDS011;8843;48.838;9.324;2023-05-29T06:36:46;5.10;;;3.97;;
17451;SDS011;8843;48.838;9.324;2023-05-29T06:39:13;6.73;;;3.83;;
17451;SDS011;8843;48.838;9.324;2023-05-29T06:41:40;7.03;;;4.27;;
17451;SDS011;8843;48.838;9.324;2023-05-29T06:44:07;6.47;;;3.80;;
17451;SDS011;8843;48.838;9.324;2023-05-29T06:46:34;6.40;;;4.70;;
17451;SDS011;8843;48.838;9.324;2023-05-29T06:49:00;7.17;;;4.33;;
17451;SDS011;8843;48.838;9.324;2023-05-29T06:51:27;6.67;;;4.23;;
17451;SDS011;8843;48.838;9.324;2023-05-29T06:53:56;7.10;;;4.10;;
17451;SDS011;8843;48.838;9.324;2023-05-29T06:56:23;6.20;;;3.70;;
17451;SDS011;8843;48.838;9.324;2023-05-29T06:58:51;7.10;;;4.03;;
17451;SDS011;8843;48.838;9.324;2023-05-29T07:01:17;6.27;;;4.17;;
17451;SDS011;8843;48.838;9.324;2023-05-29T07:03:46;5.83;;;4.07;;
17451;SDS011;8843;48.838;9.324;2023-05-29T07:06:13;7.07;;;4.70;;
17451;SDS011;8843;48.838;9.324;2023-05-29T07:08:40;7.40;;;4.07;;
17451;SDS011;8843;48.838;9.324;2023-05-29T07:11:08;5.97;;;4.00;;
17451;SDS011;8843;48.838;9.324;2023-05-29T07:13:35;6.70;;;4.23;;
17451;SDS011;8843;48.838;9.324;2023-05-29T07:16:02;6.73;;;4.53;;
17451;SDS011;8843;48.838;9.324;2023-05-29T07:18:29;6.57;;;4.30;;
17451;SDS011;8843;48.838;9.324;2023-05-29T07:20:56;5.23;;;4.00;;
17451;SDS011;8843;48.838;9.324;2023-05-29T07:23:23;5.53;;;3.80;;
17451;SDS011;8843;48.838;9.324;2023-05-29T07:25:50;5.87;;;4.37;;
17451;SDS011;8843;48.838;9.324;2023-05-29T07:28:19;5.93;;;3.40;;
17451;SDS011;8843;48.838;9.324;2023-05-29T07:30:45;5.80;;;4.07;;
17451;SDS011;8843;48.838;9.324;2023-05-29T07:33:12;6.53;;;3.97;;
17451;SDS011;8843;48.838;9.324;2023-05-29T07:35:39;6.10;;;3.77;;
17451;SDS011;8843;48.838;9.324;2023-05-29T07:38:06;5.33;;;3.67;;
17451;SDS011;8843;48.838;9.324;2023-05-29T07:40:33;5.20;;;3.57;;
17451;SDS011;8843;48.838;9.324;2023-05-29T07:43:00;6.10;;;3.87;;
17451;SDS011;8843;48.838;9.324;2023-05-29T07:45:28;9.43;;;3.67;;
17451;SDS011;8843;48.838;9.324;2023-05-29T07:47:55;5.00;;;3.93;;
17451;SDS011;8843;48.838;9.324;2023-05-29T07:50:22;6.23;;;3.97;;
17451;SDS011;8843;48.838;9.324;2023-05-29T07:52:49;6.67;;;4.27;;
17451;SDS011;8843;48.838;9.324;2023-05-29T07:55:15;7.37;;;4.07;;
17451;SDS011;8843;48.838;9.324;2023-05-29T07:57:42;5.53;;;3.50;;
17451;SDS011;8843;48.838;9.324;2023-05-29T08:00:10;5.37;;;3.70;;
17451;SDS011;8843;48.838;9.324;2023-05-29T08:02:40;6.83;;;4.20;;
17451;SDS011;8843;48.838;9.324;2023-05-29T08:05:07;7.53;;;4.10;;
17451;SDS011;8843;48.838;9.324;2023-05-29T08:07:34;4.77;;;3.50;;
17451;SDS011;8843;48.838;9.324;2023-05-29T08:10:02;4.53;;;3.47;;
17451;SDS011;8843;48.838;9.324;2023-05-29T08:12:30;6.33;;;3.90;;
17451;SDS011;8843;48.838;9.324;2023-05-29T08:14:59;5.70;;;4.20;;
17451;SDS011;8843;48.838;9.324;2023-05-29T08:17:26;5.50;;;3.70;;
17451;SDS011;8843;48.838;9.324;2023-05-29T08:19:54;8.23;;;4.33;;
17451;SDS011;8843;48.838;9.324;2023-05-29T08:22:27;4.27;;;3.37;;
17451;SDS011;8843;48.838;9.324;2023-05-29T08:24:54;6.50;;;4.13;;
17451;SDS011;8843;48.838;9.324;2023-05-29T08:27:21;4.80;;;3.43;;
17451;SDS011;8843;48.838;9.324;2023-05-29T08:29:48;6.87;;;3.97;;
17451;SDS011;8843;48.838;9.324;2023-05-29T08:32:14;5.30;;;4.07;;
17451;SDS011;8843;48.838;9.324;2023-05-29T08:34:41;5.30;;;3.80;;
17451;SDS011;8843;48.838;9.324;2023-05-29T08:37:11;5.77;;;4.17;;
17451;SDS011;8843;48.838;9.324;2023-05-29T08:39:38;5.10;;;3.57;;
17451;SDS011;8843;48.838;9.324;2023-05-29T08:42:07;7.00;;;3.87;;
17451;SDS011;8843;48.838;9.324;2023-05-29T08:44:39;5.20;;;4.00;;
17451;SDS011;8843;48.838;9.324;2023-05-29T08:47:07;8.80;;;4.30;;
17451;SDS011;8843;48.838;9.324;2023-05-29T08:49:37;6.80;;;4.20;;
17451;SDS011;8843;48.838;9.324;2023-05-29T08:52:09;5.30;;;3.90;;
17451;SDS011;8843;48.838;9.324;2023-05-29T08:54:39;7.03;;;3.63;;
17451;SDS011;8843;48.838;9.324;2023-05-29T08:57:06;4.87;;;3.80;;
17451;SDS011;8843;48.838;9.324;2023-05-29T08:59:33;6.47;;;3.77;;
17451;SDS011;8843;48.838;9.324;2023-05-29T09:02:03;6.13;;;3.30;;
17451;SDS011;8843;48.838;9.324;2023-05-29T09:04:30;7.57;;;4.00;;
17451;SDS011;8843;48.838;9.324;2023-05-29T09:06:58;5.70;;;3.90;;
17451;SDS011;8843;48.838;9.324;2023-05-29T09:09:25;6.70;;;3.83;;
17451;SDS011;8843;48.838;9.324;2023-05-29T09:11:54;8.07;;;3.83;;
17451;SDS011;8843;48.838;9.324;2023-05-29T09:14:34;8.13;;;3.87;;
17451;SDS011;8843;48.838;9.324;2023-05-29T09:17:02;5.13;;;3.87;;
17451;SDS011;8843;48.838;9.324;2023-05-29T09:19:30;6.57;;;4.10;;
17451;SDS011;8843;48.838;9.324;2023-05-29T09:22:01;5.80;;;3.83;;
17451;SDS011;8843;48.838;9.324;2023-05-29T09:24:29;6.77;;;4.10;;
17451;SDS011;8843;48.838;9.324;2023-05-29T09:26:58;5.57;;;4.03;;
17451;SDS011;8843;48.838;9.324;2023-05-29T09:29:25;6.23;;;3.93;;
17451;SDS011;8843;48.838;9.324;2023-05-29T09:31:52;4.77;;;3.70;;
17451;SDS011;8843;48.838;9.324;2023-05-29T09:34:19;5.53;;;3.30;;
17451;SDS011;8843;48.838;9.324;2023-05-29T09:36:50;5.70;;;4.10;;
17451;SDS011;8843;48.838;9.324;2023-05-29T09:39:17;4.67;;;3.70;;
17451;SDS011;8843;48.838;9.324;2023-05-29T09:41:44;5.00;;;3.37;;
17451;SDS011;8843;48.838;9.324;2023-05-29T09:44:14;5.70;;;3.47;;
17451;SDS011;8843;48.838;9.324;2023-05-29T09:46:41;4.37;;;2.90;;
17451;SDS011;8843;48.838;9.324;2023-05-29T09:49:12;7.87;;;3.80;;
17451;SDS011;8843;48.838;9.324;2023-05-29T09:51:41;7.37;;;3.77;;
17451;SDS011;8843;48.838;9.324;2023-05-29T09:54:13;6.70;;;4.27;;
17451;SDS011;8843;48.838;9.324;2023-05-29T09:56:41;5.33;;;3.20;;
17451;SDS011;8843;48.838;9.324;2023-05-29T09:59:10;4.30;;;3.10;;
17451;SDS011;8843;48.838;9.324;2023-05-29T10:01:41;8.63;;;3.37;;
17451;SDS011;8843;48.838;9.324;2023-05-29T10:04:10;4.23;;;3.23;;
17451;SDS011;8843;48.838;9.324;2023-05-29T10:06:37;6.67;;;3.47;;
17451;SDS011;8843;48.838;9.324;2023-05-29T10:09:08;8.03;;;4.17;;
17451;SDS011;8843;48.838;9.324;2023-05-29T10:11:38;4.53;;;3.53;;
17451;SDS011;8843;48.838;9.324;2023-05-29T10:14:09;5.47;;;3.33;;
17451;SDS011;8843;48.838;9.324;2023-05-29T10:16:43;6.47;;;3.80;;
17451;SDS011;8843;48.838;9.324;2023-05-29T10:19:12;6.20;;;3.73;;
17451;SDS011;8843;48.838;9.324;2023-05-29T10:21:44;5.57;;;2.90;;
17451;SDS011;8843;48.838;9.324;2023-05-29T10:24:13;4.97;;;3.00;;
17451;SDS011;8843;48.838;9.324;2023-05-29T10:26:40;6.73;;;3.10;;
17451;SDS011;8843;48.838;9.324;2023-05-29T10:29:15;6.57;;;3.20;;
17451;SDS011;8843;48.838;9.324;2023-05-29T10:31:48;6.00;;;3.10;;
17451;SDS011;8843;48.838;9.324;2023-05-29T10:34:29;4.63;;;3.20;;
17451;SDS011;8843;48.838;9.324;2023-05-29T10:37:04;4.57;;;3.07;;
17451;SDS011;8843;48.838;9.324;2023-05-29T10:39:36;5.10;;;3.40;;
17451;SDS011;8843;48.838;9.324;2023-05-29T10:42:03;6.67;;;3.70;;
17451;SDS011;8843;48.838;9.324;2023-05-29T10:45:47;3.10;;;2.80;;
17451;SDS011;8843;48.838;9.324;2023-05-29T10:48:38;6.80;;;3.20;;
17451;SDS011;8843;48.838;9.324;2023-05-29T10:51:06;6.63;;;3.30;;
17451;SDS011;8843;48.838;9.324;2023-05-29T10:53:34;4.07;;;2.97;;
17451;SDS011;8843;48.838;9.324;2023-05-29T10:56:07;4.93;;;3.33;;
17451;SDS011;8843;48.838;9.324;2023-05-29T10:58:37;6.60;;;3.23;;
17451;SDS011;8843;48.838;9.324;2023-05-29T11:01:05;6.80;;;2.87;;
17451;SDS011;8843;48.838;9.324;2023-05-29T11:03:34;5.50;;;2.90;;
17451;SDS011;8843;48.838;9.324;2023-05-29T11:06:03;3.17;;;2.80;;
17451;SDS011;8843;48.838;9.324;2023-05-29T11:08:33;3.70;;;3.17;;
17451;SDS011;8843;48.838;9.324;2023-05-29T11:11:01;4.57;;;2.50;;
17451;SDS011;8843;48.838;9.324;2023-05-29T11:13:32;3.30;;;2.80;;
17451;SDS011;8843;48.838;9.324;2023-05-29T11:16:12;5.10;;;3.17;;
17451;SDS011;8843;48.838;9.324;2023-05-29T11:18:40;4.37;;;3.03;;
17451;SDS011;8843;48.838;9.324;2023-05-29T11:21:23;5.83;;;2.80;;
17451;SDS011;8843;48.838;9.324;2023-05-29T11:23:58;6.23;;;3.07;;
17451;SDS011;8843;48.838;9.324;2023-05-29T11:26:28;4.40;;;3.00;;
17451;SDS011;8843;48.838;9.324;2023-05-29T11:28:57;4.67;;;2.80;;
17451;SDS011;8843;48.838;9.324;2023-05-29T11:31:24;3.23;;;2.73;;
17451;SDS011;8843;48.838;9.324;2023-05-29T11:33:53;3.80;;;2.73;;
17451;SDS011;8843;48.838;9.324;2023-05-29T11:36:26;4.73;;;2.77;;
17451;SDS011;8843;48.838;9.324;2023-05-29T11:38:53;3.33;;;2.77;;
17451;SDS011;8843;48.838;9.324;2023-05-29T11:41:20;4.47;;;2.77;;
17451;SDS011;8843;48.838;9.324;2023-05-29T11:43:55;4.13;;;3.10;;
17451;SDS011;8843;48.838;9.324;2023-05-29T11:46:23;3.77;;;2.90;;
17451;SDS011;8843;48.838;9.324;2023-05-29T11:48:51;5.77;;;2.90;;
17451;SDS011;8843;48.838;9.324;2023-05-29T11:51:18;6.83;;;2.80;;
17451;SDS011;8843;48.838;9.324;2023-05-29T11:53:48;4.73;;;2.90;;
17451;SDS011;8843;48.838;9.324;2023-05-29T11:56:18;6.00;;;3.30;;
17451;SDS011;8843;48.838;9.324;2023-05-29T11:58:46;4.57;;;2.93;;
17451;SDS011;8843;48.838;9.324;2023-05-29T12:01:16;4.00;;;2.70;;
17451;SDS011;8843;48.838;9.324;2023-05-29T12:03:44;3.77;;;2.60;;
17451;SDS011;8843;48.838;9.324;2023-05-29T12:06:11;3.50;;;2.77;;
17451;SDS011;8843;48.838;9.324;2023-05-29T12:08:38;3.47;;;3.03;;
17451;SDS011;8843;48.838;9.324;2023-05-29T12:11:07;3.23;;;2.50;;
17451;SDS011;8843;48.838;9.324;2023-05-29T12:13:34;3.87;;;2.63;;
17451;SDS011;8843;48.838;9.324;2023-05-29T12:16:03;4.03;;;2.53;;
17451;SDS011;8843;48.838;9.324;2023-05-29T12:18:31;5.30;;;3.07;;
17451;SDS011;8843;48.838;9.324;2023-05-29T12:20:59;4.23;;;3.10;;
17451;SDS011;8843;48.838;9.324;2023-05-29T12:23:27;4.07;;;2.43;;
17451;SDS011;8843;48.838;9.324;2023-05-29T12:25:54;3.50;;;2.53;;
17451;SDS011;8843;48.838;9.324;2023-05-29T12:28:23;4.10;;;2.60;;
17451;SDS011;8843;48.838;9.324;2023-05-29T12:30:57;6.87;;;3.13;;
17451;SDS011;8843;48.838;9.324;2023-05-29T12:33:25;3.40;;;2.57;;
17451;SDS011;8843;48.838;9.324;2023-05-29T12:35:54;3.30;;;2.53;;
17451;SDS011;8843;48.838;9.324;2023-05-29T12:38:21;4.37;;;2.90;;
17451;SDS011;8843;48.838;9.324;2023-05-29T12:40:49;3.77;;;2.73;;
17451;SDS011;8843;48.838;9.324;2023-05-29T12:43:17;3.13;;;2.83;;
17451;SDS011;8843;48.838;9.324;2023-05-29T12:45:45;5.13;;;3.13;;
17451;SDS011;8843;48.838;9.324;2023-05-29T12:48:12;3.37;;;2.90;;
17451;SDS011;8843;48.838;9.324;2023-05-29T12:50:39;3.67;;;2.83;;
17451;SDS011;8843;48.838;9.324;2023-05-29T12:53:06;3.70;;;2.70;;
17451;SDS011;8843;48.838;9.324;2023-05-29T12:55:34;4.13;;;2.80;;
17451;SDS011;8843;48.838;9.324;2023-05-29T12:58:03;4.33;;;2.90;;
17451;SDS011;8843;48.838;9.324;2023-05-29T13:00:31;3.40;;;2.90;;
17451;SDS011;8843;48.838;9.324;2023-05-29T13:03:01;3.63;;;3.00;;
17451;SDS011;8843;48.838;9.324;2023-05-29T13:05:28;3.63;;;2.97;;
17451;SDS011;8843;48.838;9.324;2023-05-29T13:07:54;4.67;;;3.23;;
17451;SDS011;8843;48.838;9.324;2023-05-29T13:10:23;3.70;;;3.10;;
17451;SDS011;8843;48.838;9.324;2023-05-29T13:12:51;4.40;;;2.80;;
17451;SDS011;8843;48.838;9.324;2023-05-29T13:15:20;4.37;;;3.23;;
17451;SDS011;8843;48.838;9.324;2023-05-29T13:17:47;3.63;;;3.13;;
17451;SDS011;8843;48.838;9.324;2023-05-29T13:20:16;4.37;;;3.40;;
17451;SDS011;8843;48.838;9.324;2023-05-29T13:22:44;3.73;;;3.00;;
17451;SDS011;8843;48.838;9.324;2023-05-29T13:25:12;4.20;;;3.40;;
17451;SDS011;8843;48.838;9.324;2023-05-29T13:27:40;3.17;;;2.70;;
17451;SDS011;8843;48.838;9.324;2023-05-29T13:30:08;3.70;;;2.80;;
17451;SDS011;8843;48.838;9.324;2023-05-29T13:32:36;3.23;;;2.80;;
17451;SDS011;8843;48.838;9.324;2023-05-29T13:35:03;2.63;;;2.20;;
17451;SDS011;8843;48.838;9.324;2023-05-29T13:37:32;4.67;;;2.73;;
17451;SDS011;8843;48.838;9.324;2023-05-29T13:39:59;3.77;;;3.20;;
17451;SDS011;8843;48.838;9.324;2023-05-29T13:42:26;4.07;;;2.93;;
17451;SDS011;8843;48.838;9.324;2023-05-29T13:44:53;5.80;;;3.13;;
17451;SDS011;8843;48.838;9.324;2023-05-29T13:47:20;4.73;;;2.93;;
17451;SDS011;8843;48.838;9.324;2023-05-29T13:49:46;3.87;;;2.93;;
17451;SDS011;8843;48.838;9.324;2023-05-29T13:52:13;5.43;;;2.93;;
17451;SDS011;8843;48.838;9.324;2023-05-29T13:54:42;3.33;;;2.60;;
17451;SDS011;8843;48.838;9.324;2023-05-29T13:57:09;6.40;;;3.00;;
17451;SDS011;8843;48.838;9.324;2023-05-29T13:59:36;3.33;;;2.67;;
17451;SDS011;8843;48.838;9.324;2023-05-29T14:02:03;3.57;;;2.80;;
17451;SDS011;8843;48.838;9.324;2023-05-29T14:04:31;4.67;;;3.23;;
17451;SDS011;8843;48.838;9.324;2023-05-29T14:06:58;4.57;;;3.10;;
17451;SDS011;8843;48.838;9.324;2023-05-29T14:09:24;4.27;;;2.90;;
17451;SDS011;8843;48.838;9.324;2023-05-29T14:11:56;4.30;;;2.70;;
17451;SDS011;8843;48.838;9.324;2023-05-29T14:14:25;3.40;;;2.87;;
17451;SDS011;8843;48.838;9.324;2023-05-29T14:16:54;3.77;;;2.77;;
17451;SDS011;8843;48.838;9.324;2023-05-29T14:19:21;3.43;;;2.80;;
17451;SDS011;8843;48.838;9.324;2023-05-29T14:21:48;3.23;;;2.90;;
17451;SDS011;8843;48.838;9.324;2023-05-29T14:24:15;2.90;;;2.47;;
17451;SDS011;8843;48.838;9.324;2023-05-29T14:26:43;4.53;;;3.10;;
17451;SDS011;8843;48.838;9.324;2023-05-29T14:29:13;3.57;;;2.87;;
17451;SDS011;8843;48.838;9.324;2023-05-29T14:31:40;5.07;;;2.93;;
17451;SDS011;8843;48.838;9.324;2023-05-29T14:34:07;3.30;;;2.90;;
17451;SDS011;8843;48.838;9.324;2023-05-29T14:36:34;3.57;;;2.73;;
17451;SDS011;8843;48.838;9.324;2023-05-29T14:39:02;4.13;;;3.37;;
17451;SDS011;8843;48.838;9.324;2023-05-29T14:41:29;3.70;;;2.90;;
17451;SDS011;8843;48.838;9.324;2023-05-29T14:43:55;2.97;;;2.67;;
17451;SDS011;8843;48.838;9.324;2023-05-29T14:46:25;6.70;;;2.73;;
17451;SDS011;8843;48.838;9.324;2023-05-29T14:48:55;3.17;;;2.30;;
17451;SDS011;8843;48.838;9.324;2023-05-29T14:51:21;3.50;;;2.83;;
17451;SDS011;8843;48.838;9.324;2023-05-29T14:53:49;4.03;;;2.73;;
17451;SDS011;8843;48.838;9.324;2023-05-29T14:56:16;4.57;;;2.90;;
17451;SDS011;8843;48.838;9.324;2023-05-29T14:58:44;4.03;;;3.30;;
17451;SDS011;8843;48.838;9.324;2023-05-29T15:01:11;3.47;;;2.20;;
17451;SDS011;8843;48.838;9.324;2023-05-29T15:03:39;3.17;;;2.80;;
17451;SDS011;8843;48.838;9.324;2023-05-29T15:06:06;3.10;;;2.77;;
17451;SDS011;8843;48.838;9.324;2023-05-29T15:08:35;4.27;;;2.60;;
17451;SDS011;8843;48.838;9.324;2023-05-29T15:11:01;4.37;;;2.97;;